Time;durP1;ratioP1;P1;durP2;ratioP2;P2;SDS_P1;SDS_P2;PMS_P1;PMS_P2;Temp;Humidity;BMP_temperature;BMP_pressure;BME280_temperature;BME280_humidity;BME280_pressure;Samples;Min_cycle;Max_cycle;Signal;HPM_P1;HPM_P2
2021/12/16 00:09:15;;;;;;;2.47;0.63;;;19.90;53.80;;;;;;5034437;28;20077;-90
2021/12/16 00:33:32;;;;;;;1.45;0.60;;;19.70;53.80;;;;;;5013880;28;20080;-90
2021/12/16 00:35:57;;;;;;;2.00;0.80;;;19.80;53.80;;;;;;5013914;28;20050;-90
2021/12/16 00:38:23;;;;;;;1.60;0.80;;;20.00;54.00;;;;;;5013048;28;20543;-89
2021/12/16 00:40:48;;;;;;;2.75;0.80;;;19.70;53.80;;;;;;5013429;28;20057;-89
2021/12/16 00:43:22;;;;;;;1.33;0.80;;;19.70;53.80;;;;;;5013458;28;20505;-88
2021/12/16 00:49:17;;;;;;;2.10;0.80;;;19.70;53.80;;;;;;5032986;28;20060;-89
2021/12/16 00:54:13;;;;;;;1.13;0.70;;;19.70;53.80;;;;;;5013797;28;20077;-88
2021/12/16 00:57:03;;;;;;;1.73;0.60;;;19.70;53.80;;;;;;5031152;28;20041;-89
2021/12/16 00:59:34;;;;;;;1.73;0.68;;;19.70;53.80;;;;;;5012958;28;20047;-89
2021/12/16 01:07:54;;;;;;;1.60;0.70;;;19.60;54.50;;;;;;5034054;28;20128;-90
2021/12/16 01:35:20;;;;;;;1.45;0.60;;;19.60;53.90;;;;;;4999654;28;20054;-90
2021/12/16 01:41:08;;;;;;;2.80;1.00;;;19.60;53.90;;;;;;5014271;28;20045;-90
2021/12/16 01:46:09;;;;;;;1.88;0.80;;;19.60;53.90;;;;;;5030082;28;20050;-88
2021/12/16 01:51:27;;;;;;;2.08;0.80;;;19.50;53.90;;;;;;5013472;28;20409;-89
2021/12/16 01:57:08;;;;;;;1.63;0.60;;;19.50;53.90;;;;;;5014485;28;20050;-89
2021/12/16 01:59:36;;;;;;;2.55;0.70;;;19.50;53.90;;;;;;5018098;28;20056;-90
2021/12/16 02:05:28;;;;;;;2.60;0.93;;;19.50;53.90;;;;;;5022892;28;20099;-89
2021/12/16 02:08:16;;;;;;;1.77;0.82;;;19.50;53.90;;;;;;5033603;28;20066;-90
2021/12/16 02:10:46;;;;;;;1.20;0.52;;;19.50;53.90;;;;;;5032616;28;20095;-90
2021/12/16 02:27:28;;;;;;;1.25;0.50;;;19.40;53.80;;;;;;5027815;28;20048;-90
2021/12/16 02:31:04;;;;;;;2.03;0.80;;;19.40;53.80;;;;;;5032200;28;20049;-90
2021/12/16 02:35:41;;;;;;;2.03;0.70;;;19.40;53.90;;;;;;5033099;28;20143;-89
2021/12/16 02:38:07;;;;;;;1.80;0.70;;;19.40;53.90;;;;;;5032936;28;20073;-90
2021/12/16 02:40:33;;;;;;;1.73;0.60;;;19.40;53.90;;;;;;5033112;28;20499;-90
2021/12/16 02:43:08;;;;;;;1.60;0.73;;;19.40;53.90;;;;;;5033840;28;20041;-91
2021/12/16 02:48:38;;;;;;;1.50;0.60;;;19.40;53.90;;;;;;5034287;28;20492;-91
2021/12/16 02:51:22;;;;;;;1.58;0.70;;;19.40;53.90;;;;;;5034217;28;20053;-91
2021/12/16 02:53:53;;;;;;;1.77;0.73;;;19.40;53.90;;;;;;5034472;28;20321;-91
2021/12/16 02:56:19;;;;;;;1.77;0.80;;;19.40;53.90;;;;;;5034374;28;20044;-90
2021/12/16 02:58:47;;;;;;;1.13;0.55;;;19.40;53.90;;;;;;5021310;28;20586;-92
2021/12/16 03:01:17;;;;;;;1.23;0.57;;;19.40;53.90;;;;;;5033967;28;20742;-91
2021/12/16 03:03:42;;;;;;;1.70;0.80;;;19.40;53.90;;;;;;5034475;28;20045;-91
2021/12/16 03:06:10;;;;;;;1.55;0.60;;;19.40;53.90;;;;;;5033741;28;20079;-89
2021/12/16 03:08:36;;;;;;;1.80;0.70;;;19.40;53.90;;;;;;5034227;28;20500;-91
2021/12/16 03:13:35;;;;;;;2.10;0.80;;;19.30;53.90;;;;;;5033539;28;20094;-90
2021/12/16 03:16:17;;;;;;;1.00;0.67;;;19.40;53.90;;;;;;5018509;28;20108;-90
2021/12/16 03:21:17;;;;;;;1.33;0.60;;;19.30;53.90;;;;;;5034068;28;20310;-91
2021/12/16 03:24:07;;;;;;;1.48;0.70;;;19.30;53.90;;;;;;5020772;28;20076;-90
2021/12/16 03:39:53;;;;;;;1.10;0.70;;;19.30;53.90;;;;;;5035809;28;20056;-90
2021/12/16 03:42:23;;;;;;;1.25;0.60;;;19.20;53.80;;;;;;5036521;28;20052;-90
2021/12/16 03:44:54;;;;;;;1.73;0.80;;;19.30;53.90;;;;;;5037032;28;20052;-91
2021/12/16 03:47:24;;;;;;;2.03;0.75;;;19.60;54.10;;;;;;5037082;28;20067;-90
2021/12/16 03:49:49;;;;;;;1.83;0.73;;;19.30;53.90;;;;;;5036558;28;20052;-91
2021/12/16 03:52:15;;;;;;;2.38;0.80;;;19.30;53.90;;;;;;5036352;28;20060;-90
2021/12/16 03:54:49;;;;;;;2.28;0.80;;;19.30;53.90;;;;;;5020380;28;20477;-89
2021/12/16 03:57:15;;;;;;;1.90;0.60;;;19.30;53.90;;;;;;5036628;28;20900;-90
2021/12/16 03:59:40;;;;;;;2.75;0.82;;;19.20;53.90;;;;;;5037154;28;20147;-90
2021/12/16 04:02:12;;;;;;;2.28;0.88;;;19.20;53.90;;;;;;5036900;28;20395;-90
2021/12/16 04:04:38;;;;;;;2.53;0.93;;;19.20;53.90;;;;;;5035887;28;20700;-90
2021/12/16 04:07:04;;;;;;;2.67;0.80;;;19.20;53.90;;;;;;5036458;28;20140;-90
2021/12/16 04:09:32;;;;;;;1.52;0.77;;;19.20;53.90;;;;;;5035982;28;20041;-90
2021/12/16 04:12:08;;;;;;;2.00;0.77;;;19.20;53.90;;;;;;5035450;28;20061;-90
2021/12/16 04:14:33;;;;;;;1.05;0.60;;;19.20;53.90;;;;;;5035994;28;20140;-90
2021/12/16 04:17:02;;;;;;;2.35;0.70;;;19.20;53.90;;;;;;5035482;28;20045;-89
2021/12/16 04:19:28;;;;;;;2.63;0.98;;;19.50;54.10;;;;;;5035617;28;20040;-89
2021/12/16 04:22:02;;;;;;;2.08;1.05;;;19.20;53.90;;;;;;5035756;28;20080;-91
2021/12/16 04:24:27;;;;;;;2.30;0.82;;;19.20;53.90;;;;;;5035365;28;20048;-90
2021/12/16 04:26:54;;;;;;;1.45;0.73;;;19.20;53.90;;;;;;5035461;28;20503;-91
2021/12/16 04:29:22;;;;;;;1.45;0.88;;;19.20;53.90;;;;;;5036010;28;20056;-91
2021/12/16 04:31:47;;;;;;;1.27;0.70;;;20.20;54.40;;;;;;5035339;28;20471;-91
2021/12/16 04:34:13;;;;;;;1.38;0.60;;;19.20;53.90;;;;;;5034129;28;20132;-90
2021/12/16 04:36:39;;;;;;;2.60;0.95;;;19.10;53.90;;;;;;5035359;28;20508;-90
2021/12/16 04:39:06;;;;;;;1.92;0.77;;;19.10;53.90;;;;;;5017967;28;20098;-91
2021/12/16 04:41:32;;;;;;;1.80;0.70;;;19.80;54.20;;;;;;5035372;28;20040;-90
2021/12/16 04:43:58;;;;;;;2.35;0.90;;;19.10;53.90;;;;;;5035151;28;20579;-89
2021/12/16 04:46:29;;;;;;;1.20;0.73;;;19.10;53.90;;;;;;5033914;28;20135;-90
2021/12/16 04:48:56;;;;;;;1.63;0.68;;;19.10;53.90;;;;;;5033886;28;20045;-91
2021/12/16 04:51:24;;;;;;;2.22;0.77;;;19.10;53.90;;;;;;5034901;28;20056;-91
2021/12/16 04:53:49;;;;;;;1.55;0.70;;;19.10;53.90;;;;;;5034734;28;20140;-90
2021/12/16 04:56:15;;;;;;;1.70;0.70;;;19.10;53.90;;;;;;5035443;28;20151;-90
2021/12/16 04:58:43;;;;;;;2.83;0.88;;;19.50;54.10;;;;;;5035139;28;20052;-90
2021/12/16 05:01:09;;;;;;;1.50;0.70;;;19.10;53.90;;;;;;5035326;28;20041;-91
2021/12/16 05:03:35;;;;;;;1.30;0.80;;;19.10;54.00;;;;;;5035454;28;20044;-89
2021/12/16 05:06:00;;;;;;;1.67;0.63;;;19.10;53.90;;;;;;5036427;28;20572;-90
2021/12/16 05:08:26;;;;;;;1.83;1.00;;;19.10;53.90;;;;;;5036207;28;20033;-91
2021/12/16 05:10:54;;;;;;;1.83;0.80;;;19.10;54.00;;;;;;5034490;28;20135;-90
2021/12/16 05:13:23;;;;;;;1.90;0.70;;;19.10;54.00;;;;;;5017711;28;20048;-90
2021/12/16 05:15:49;;;;;;;1.75;0.80;;;19.00;53.90;;;;;;5034608;28;20048;-90
2021/12/16 05:18:20;;;;;;;2.55;1.00;;;19.10;53.90;;;;;;5034425;28;20068;-92
2021/12/16 05:20:46;;;;;;;2.47;1.20;;;19.00;53.90;;;;;;5033943;28;20045;-88
2021/12/16 05:28:36;;;;;;;1.95;0.80;;;19.00;53.90;;;;;;5033345;28;20087;-89
2021/12/16 05:31:02;;;;;;;1.70;0.90;;;19.10;53.90;;;;;;5033695;28;20099;-88
2021/12/16 05:33:28;;;;;;;1.75;0.75;;;19.00;53.90;;;;;;5033705;28;20045;-88
2021/12/16 05:35:54;;;;;;;2.03;0.90;;;19.10;54.00;;;;;;5033363;28;20083;-88
2021/12/16 05:38:19;;;;;;;1.23;0.70;;;19.00;53.90;;;;;;5033832;28;20036;-88
2021/12/16 05:40:45;;;;;;;1.67;0.82;;;19.00;53.90;;;;;;5034393;28;20045;-89
2021/12/16 05:43:13;;;;;;;1.80;0.77;;;19.10;54.00;;;;;;5033208;28;20049;-89
2021/12/16 05:45:39;;;;;;;2.10;0.90;;;19.00;53.90;;;;;;5033983;28;20508;-89
2021/12/16 05:48:06;;;;;;;1.55;0.80;;;19.00;54.00;;;;;;5034069;28;20056;-89
2021/12/16 05:50:33;;;;;;;1.48;0.63;;;19.00;54.00;;;;;;5033437;28;20048;-88
2021/12/16 05:52:59;;;;;;;1.77;0.90;;;19.10;54.10;;;;;;5033108;28;20136;-87
2021/12/16 05:55:24;;;;;;;1.33;0.70;;;19.00;54.10;;;;;;5031835;28;20037;-89
2021/12/16 05:57:50;;;;;;;1.85;0.70;;;19.00;54.10;;;;;;5032108;28;20041;-88
2021/12/16 06:00:22;;;;;;;1.90;0.80;;;19.00;54.10;;;;;;5033390;28;20136;-88
2021/12/16 06:02:48;;;;;;;1.35;0.60;;;19.00;54.20;;;;;;5033233;28;20416;-87
2021/12/16 06:05:14;;;;;;;1.23;0.70;;;19.00;54.20;;;;;;5033729;28;20033;-89
2021/12/16 06:07:39;;;;;;;1.60;0.50;;;19.10;54.20;;;;;;5033629;28;20190;-89
2021/12/16 06:10:06;;;;;;;1.75;0.70;;;19.00;54.20;;;;;;5033185;28;20040;-89
2021/12/16 06:12:31;;;;;;;1.35;0.68;;;19.10;54.20;;;;;;5040729;23;20496;-89
2021/12/16 06:15:41;;;;;;;1.65;0.70;;;19.10;54.20;;;;;;5034033;28;20090;-89
2021/12/16 06:26:40;;;;;;;1.73;0.70;;;19.10;54.20;;;;;;5006759;28;20052;-89
2021/12/16 06:29:05;;;;;;;1.52;0.82;;;20.00;54.80;;;;;;5033748;28;20439;-89
2021/12/16 06:31:31;;;;;;;1.23;0.70;;;19.10;54.90;;;;;;5007918;28;20048;-88
2021/12/16 06:33:57;;;;;;;1.50;0.60;;;19.10;54.70;;;;;;5025209;28;20053;-89
2021/12/16 06:36:22;;;;;;;1.67;0.77;;;19.10;54.30;;;;;;5046718;28;20107;-90
2021/12/16 06:38:48;;;;;;;2.00;0.75;;;19.20;54.30;;;;;;5049509;28;20049;-90
2021/12/16 06:41:14;;;;;;;2.13;0.70;;;19.20;54.30;;;;;;5049402;28;20229;-89
2021/12/16 06:43:40;;;;;;;1.40;0.70;;;19.10;54.30;;;;;;5039769;28;20068;-89
2021/12/16 06:46:10;;;;;;;1.67;0.60;;;19.10;54.30;;;;;;5045943;28;20063;-90
2021/12/16 06:48:39;;;;;;;1.48;0.63;;;19.10;54.40;;;;;;5051972;28;20080;-89
2021/12/16 06:51:11;;;;;;;2.05;0.90;;;19.20;54.40;;;;;;5052625;28;20060;-90
2021/12/16 06:54:25;;;;;;;1.52;0.60;;;19.20;54.40;;;;;;5049849;28;20468;-88
2021/12/16 06:56:29;;;;;;;1.48;0.70;;;19.20;54.40;;;;;;5039033;28;20467;-89
2021/12/16 06:59:08;;;;;;;1.80;0.90;;;19.20;55.20;;;;;;5053858;28;20056;-90
2021/12/16 07:05:09;;;;;;;1.20;0.57;;;19.20;54.50;;;;;;5055754;28;20040;-90
2021/12/16 07:07:34;;;;;;;1.13;0.52;;;19.20;54.50;;;;;;5055843;28;20035;-88
2021/12/16 07:10:00;;;;;;;1.85;0.70;;;19.30;54.50;;;;;;5055385;28;20048;-88
2021/12/16 07:12:35;;;;;;;1.05;0.65;;;19.30;54.50;;;;;;5056294;28;20075;-87
2021/12/16 07:15:11;;;;;;;0.88;0.60;;;19.30;54.50;;;;;;5055398;28;20501;-88
2021/12/16 07:17:37;;;;;;;1.88;0.68;;;19.30;54.50;;;;;;5054963;28;20083;-89
2021/12/16 07:20:05;;;;;;;1.65;0.70;;;19.30;54.40;;;;;;5054975;28;20051;-88
2021/12/16 07:22:30;;;;;;;1.27;0.70;;;19.30;54.40;;;;;;5056394;28;20055;-89
2021/12/16 07:24:56;;;;;;;1.27;0.65;;;19.30;54.40;;;;;;5026233;28;20049;-89
2021/12/16 07:27:22;;;;;;;0.98;0.52;;;19.30;54.40;;;;;;5023443;23;20497;-91
2021/12/16 07:29:50;;;;;;;2.72;0.80;;;19.70;54.90;;;;;;5000653;28;20042;-90
2021/12/16 07:32:16;;;;;;;1.45;0.60;;;20.90;55.40;;;;;;4999591;28;20136;-87
2021/12/16 07:34:41;;;;;;;1.75;0.75;;;20.70;55.10;;;;;;5013354;28;20132;-90
2021/12/16 07:37:08;;;;;;;2.08;0.80;;;20.10;54.70;;;;;;5012059;28;20128;-89
2021/12/16 07:39:41;;;;;;;1.30;0.70;;;19.30;54.20;;;;;;5011997;28;20139;-89
2021/12/16 07:42:09;;;;;;;1.80;0.70;;;19.30;54.20;;;;;;5015648;28;20064;-90
2021/12/16 07:44:35;;;;;;;2.80;1.10;;;19.30;54.20;;;;;;5003446;28;20064;-90
2021/12/16 07:47:03;;;;;;;1.58;0.70;;;19.30;54.20;;;;;;5014815;28;20059;-90
2021/12/16 07:49:31;;;;;;;1.67;0.73;;;19.30;54.20;;;;;;5024119;28;20067;-89
2021/12/16 07:51:57;;;;;;;1.55;0.73;;;19.50;54.30;;;;;;5035484;28;20099;-90
2021/12/16 07:54:23;;;;;;;1.77;0.73;;;19.40;54.20;;;;;;5036053;28;20055;-89
2021/12/16 07:56:51;;;;;;;1.67;0.70;;;19.30;54.10;;;;;;5035217;28;20041;-89
2021/12/16 07:59:16;;;;;;;2.67;0.80;;;20.90;55.00;;;;;;5036119;28;20045;-88
2021/12/16 08:01:43;;;;;;;1.75;0.73;;;19.30;54.10;;;;;;5049094;28;20117;-89
2021/12/16 08:04:18;;;;;;;2.80;1.05;;;19.30;54.10;;;;;;5058017;28;20071;-90
2021/12/16 08:06:44;;;;;;;1.58;0.80;;;19.30;54.10;;;;;;5054694;28;20126;-89
2021/12/16 08:09:09;;;;;;;1.52;0.80;;;19.30;54.10;;;;;;5053836;28;20449;-91
2021/12/16 08:11:38;;;;;;;1.90;0.70;;;19.50;54.20;;;;;;5072365;28;20381;-90
2021/12/16 08:14:03;;;;;;;1.88;0.80;;;19.40;54.10;;;;;;5038293;28;20484;-90
2021/12/16 08:16:30;;;;;;;3.03;1.10;;;19.30;54.00;;;;;;5033793;28;20063;-89
2021/12/16 08:18:55;;;;;;;2.08;0.95;;;20.60;54.70;;;;;;5033448;28;20507;-88
2021/12/16 08:21:21;;;;;;;2.78;0.77;;;19.30;54.00;;;;;;5056302;28;20036;-89
2021/12/16 08:23:46;;;;;;;3.10;1.50;;;20.90;54.90;;;;;;5056639;28;20041;-91
2021/12/16 08:26:12;;;;;;;3.42;1.20;;;19.40;54.30;;;;;;5055590;28;20099;-92
2021/12/16 08:28:38;;;;;;;2.88;1.20;;;19.30;54.10;;;;;;5056348;28;20171;-92
2021/12/16 08:31:06;;;;;;;5.70;1.50;;;19.30;54.20;;;;;;5056402;28;20067;-90
2021/12/16 08:33:32;;;;;;;2.92;1.40;;;19.90;54.60;;;;;;5073879;28;20066;-91
2021/12/16 08:35:57;;;;;;;4.82;1.42;;;19.40;54.10;;;;;;5023668;28;20057;-86
2021/12/16 08:38:23;;;;;;;9.20;2.00;;;19.40;54.10;;;;;;4997135;28;20132;-86
2021/12/16 08:40:51;;;;;;;5.43;1.80;;;19.40;54.10;;;;;;5013289;28;20045;-88
2021/12/16 08:43:17;;;;;;;6.90;1.60;;;19.30;54.20;;;;;;5002212;28;20050;-88
2021/12/16 08:45:43;;;;;;;4.93;1.50;;;19.30;54.10;;;;;;4997216;28;20046;-86
2021/12/16 08:48:08;;;;;;;3.00;1.27;;;19.30;54.10;;;;;;4993400;28;20387;-91
2021/12/16 08:50:36;;;;;;;4.18;2.83;;;19.30;54.20;;;;;;5003498;28;20053;-84
2021/12/16 08:53:04;;;;;;;5.35;1.75;;;19.30;54.20;;;;;;4999880;28;20050;-92
2021/12/16 08:55:31;;;;;;;6.13;1.20;;;19.30;54.40;;;;;;4995488;28;20046;-89
2021/12/16 08:57:57;;;;;;;3.30;1.52;;;19.30;54.40;;;;;;4993079;28;20064;-88
2021/12/16 09:00:25;;;;;;;7.32;1.80;;;19.40;54.30;;;;;;4993868;28;20521;-91
2021/12/16 09:02:51;;;;;;;3.15;1.38;;;19.60;54.40;;;;;;4996103;28;20072;-89
2021/12/16 09:05:17;;;;;;;6.03;1.77;;;20.40;54.80;;;;;;5004759;28;20029;-89
2021/12/16 09:07:55;;;;;;;;;;;;;;;;;;;;;
2021/12/16 09:10:29;;;;;;;3.30;1.48;;;19.30;54.30;;;;;;5023880;28;20132;-89
2021/12/16 09:13:02;;;;;;;4.78;1.63;;;19.40;54.30;;;;;;5012555;28;20100;-89
2021/12/16 09:15:58;;;;;;;4.38;1.30;;;19.40;54.30;;;;;;5026645;28;20057;-89
2021/12/16 09:18:27;;;;;;;4.75;1.23;;;19.50;54.50;;;;;;5048892;28;20056;-88
2021/12/16 09:20:52;;;;;;;5.30;1.52;;;19.50;54.50;;;;;;5032108;28;20084;-88
2021/12/16 09:23:20;;;;;;;3.58;1.35;;;19.10;54.40;;;;;;5032202;28;20080;-88
2021/12/16 09:28:38;;;;;;;4.90;1.58;;;19.40;54.40;;;;;;4978961;28;20053;-88
2021/12/16 09:31:12;;;;;;;3.25;1.30;;;21.00;55.20;;;;;;4991834;28;20524;-92
2021/12/16 09:34:09;;;;;;;3.47;1.48;;;19.40;54.20;;;;;;4991098;28;20046;-89
2021/12/16 09:36:40;;;;;;;5.20;1.42;;;19.30;54.20;;;;;;4993657;28;20437;-92
2021/12/16 09:39:08;;;;;;;2.92;1.27;;;19.30;54.20;;;;;;5012238;23;20136;-92
2021/12/16 09:41:33;;;;;;;3.22;1.33;;;19.30;54.20;;;;;;4845281;28;20053;-93
2021/12/16 09:43:59;;;;;;;3.22;1.02;;;19.30;54.20;;;;;;5034280;28;20102;-93
2021/12/16 09:46:26;;;;;;;3.08;1.65;;;20.10;54.60;;;;;;5033532;28;20098;-92
2021/12/16 09:48:52;;;;;;;2.58;1.20;;;19.30;54.20;;;;;;5022530;28;20135;-92
2021/12/16 09:51:21;;;;;;;4.43;1.30;;;19.30;54.30;;;;;;5018069;28;20463;-92
2021/12/16 09:53:47;;;;;;;4.43;1.38;;;19.30;54.30;;;;;;5032640;28;20060;-93
2021/12/16 09:56:13;;;;;;;2.50;1.15;;;20.80;55.10;;;;;;5050263;28;20977;-93
2021/12/16 09:58:42;;;;;;;4.32;1.27;;;19.30;54.30;;;;;;5034245;28;20113;-92
2021/12/16 10:01:09;;;;;;;5.00;1.35;;;19.30;54.30;;;;;;5049300;28;20040;-90
2021/12/16 10:03:36;;;;;;;3.80;1.25;;;19.20;54.30;;;;;;5031951;28;20055;-90
2021/12/16 10:06:02;;;;;;;2.72;1.40;;;20.70;55.10;;;;;;5012731;28;20551;-87
2021/12/16 10:08:29;;;;;;;3.65;1.60;;;19.20;54.40;;;;;;5030964;28;20132;-86
2021/12/16 10:10:54;;;;;;;9.15;2.00;;;19.40;54.40;;;;;;5029400;28;20091;-87
2021/12/16 10:13:31;;;;;;;8.93;3.03;;;19.20;54.50;;;;;;4995945;28;20088;-86
2021/12/16 10:18:34;;;;;;;8.95;3.25;;;19.20;54.60;;;;;;5028439;28;20536;-86
2021/12/16 10:21:04;;;;;;;4.95;2.95;;;20.10;55.10;;;;;;5029082;28;20096;-86
2021/12/16 10:23:34;;;;;;;5.60;2.70;;;19.20;54.60;;;;;;5027940;28;20049;-85
2021/12/16 10:26:01;;;;;;;5.13;2.40;;;19.20;54.60;;;;;;5027382;28;20056;-86
2021/12/16 10:28:29;;;;;;;5.30;2.90;;;19.50;54.80;;;;;;4989348;28;20045;-87
2021/12/16 10:31:05;;;;;;;7.22;3.33;;;19.20;54.70;;;;;;4991333;28;20088;-87
2021/12/16 10:33:50;;;;;;;6.40;3.17;;;19.20;55.00;;;;;;4977882;28;20557;-86
2021/12/16 10:36:40;;;;;;;7.28;2.75;;;19.20;54.90;;;;;;4988995;28;20084;-88
2021/12/16 10:39:07;;;;;;;9.57;4.45;;;19.20;54.80;;;;;;4994437;28;20057;-89
2021/12/16 10:41:56;;;;;;;9.10;3.97;;;20.00;55.30;;;;;;4994669;28;20037;-85
2021/12/16 10:44:24;;;;;;;7.07;3.75;;;19.20;54.90;;;;;;5021990;28;20120;-86
2021/12/16 10:46:54;;;;;;;8.70;4.43;;;19.20;54.90;;;;;;5005542;28;20050;-88
2021/12/16 10:49:26;;;;;;;6.60;3.67;;;19.20;55.30;;;;;;4995071;28;20147;-87
2021/12/16 10:51:54;;;;;;;7.13;3.75;;;19.20;55.30;;;;;;4995801;28;20049;-87
2021/12/16 10:54:38;;;;;;;9.82;3.72;;;19.20;55.30;;;;;;4995189;28;20620;-88
2021/12/16 10:57:16;;;;;;;8.65;4.00;;;19.20;55.30;;;;;;5034233;28;20148;-87
2021/12/16 10:59:44;;;;;;;7.80;3.92;;;19.20;55.30;;;;;;5010784;28;20122;-87
2021/12/16 11:02:19;;;;;;;5.75;3.53;;;19.30;55.30;;;;;;5034450;28;20171;-87
2021/12/16 11:04:45;;;;;;;5.65;3.20;;;19.30;55.40;;;;;;5032216;28;20045;-86
2021/12/16 11:07:23;;;;;;;7.82;3.45;;;19.30;55.40;;;;;;5034323;28;20041;-89
2021/12/16 11:10:07;;;;;;;7.45;3.80;;;19.30;55.10;;;;;;5022349;28;20104;-88
2021/12/16 11:12:43;;;;;;;6.72;3.15;;;19.30;55.10;;;;;;5013573;28;20493;-86
2021/12/16 11:15:11;;;;;;;7.38;3.40;;;19.30;55.10;;;;;;5015169;28;20053;-87
2021/12/16 11:17:40;;;;;;;5.07;2.70;;;19.40;55.00;;;;;;5015847;28;20049;-88
2021/12/16 11:20:21;;;;;;;5.55;2.80;;;20.50;55.60;;;;;;5015058;28;20049;-88
2021/12/16 11:22:48;;;;;;;5.95;2.92;;;19.30;55.00;;;;;;5014833;28;20413;-88
2021/12/16 11:25:30;;;;;;;5.43;2.83;;;19.30;55.00;;;;;;5029944;28;20045;-89
2021/12/16 11:28:25;;;;;;;5.30;2.97;;;19.40;55.00;;;;;;5031545;28;20701;-88
2021/12/16 11:30:53;;;;;;;6.78;3.15;;;19.40;55.00;;;;;;5034187;28;20049;-89
2021/12/16 11:33:33;;;;;;;5.50;2.88;;;19.40;55.00;;;;;;5030919;28;20088;-89
2021/12/16 11:36:06;;;;;;;5.43;3.40;;;19.40;55.00;;;;;;5035078;28;20484;-89
2021/12/16 11:38:41;;;;;;;5.70;3.05;;;19.30;54.90;;;;;;5033895;28;20136;-89
2021/12/16 11:41:22;;;;;;;6.03;3.30;;;19.30;54.90;;;;;;5031892;28;20183;-89
2021/12/16 11:43:56;;;;;;;7.05;3.22;;;19.30;54.90;;;;;;5032898;28;20421;-89
2021/12/16 11:46:30;;;;;;;5.05;2.92;;;19.30;54.90;;;;;;5049136;28;20488;-88
2021/12/16 11:49:02;;;;;;;5.22;2.88;;;19.30;54.90;;;;;;5031165;28;20052;-88
2021/12/16 11:51:46;;;;;;;4.38;2.67;;;19.30;54.90;;;;;;5034189;28;20041;-87
2021/12/16 11:54:14;;;;;;;6.03;2.55;;;19.30;54.90;;;;;;5031673;28;20720;-86
2021/12/16 11:56:49;;;;;;;6.63;2.85;;;19.30;54.90;;;;;;5033411;28;20056;-89
2021/12/16 11:59:26;;;;;;;5.90;2.80;;;19.30;54.90;;;;;;5032253;28;20041;-93
2021/12/16 12:01:52;;;;;;;5.13;2.90;;;19.30;55.00;;;;;;5036126;28;20101;-92
2021/12/16 12:04:24;;;;;;;6.80;2.95;;;19.30;55.00;;;;;;5034518;28;20145;-93
2021/12/16 12:06:49;;;;;;;5.63;3.08;;;19.20;54.90;;;;;;5021791;28;20492;-92
2021/12/16 12:09:15;;;;;;;6.75;3.42;;;19.30;55.10;;;;;;5036018;28;20049;-92
2021/12/16 12:11:43;;;;;;;5.35;2.90;;;19.20;55.10;;;;;;5036093;28;20048;-92
2021/12/16 12:14:11;;;;;;;6.97;3.10;;;19.20;55.10;;;;;;5036519;28;20055;-92
2021/12/16 12:16:39;;;;;;;5.53;3.28;;;19.20;55.10;;;;;;5052450;28;20090;-91
2021/12/16 12:19:22;;;;;;;4.55;2.67;;;19.20;55.10;;;;;;5032354;28;20053;-91
2021/12/16 12:22:01;;;;;;;6.03;3.17;;;19.20;55.10;;;;;;5035321;28;20452;-92
2021/12/16 12:24:32;;;;;;;4.90;2.55;;;19.20;55.20;;;;;;5035457;28;20080;-92
2021/12/16 12:27:20;;;;;;;4.97;3.17;;;19.20;55.10;;;;;;5034521;28;20488;-90
2021/12/16 12:29:59;;;;;;;5.50;2.60;;;19.20;55.20;;;;;;5029697;28;20483;-91
2021/12/16 12:32:29;;;;;;;5.28;2.28;;;19.10;55.20;;;;;;5032357;28;20051;-88
2021/12/16 12:35:03;;;;;;;4.78;2.42;;;19.10;55.90;;;;;;5026713;28;20056;-94
2021/12/16 12:37:31;;;;;;;6.25;2.72;;;19.10;55.20;;;;;;5026533;28;20045;-91
2021/12/16 12:40:15;;;;;;;8.60;2.60;;;19.10;55.90;;;;;;5035224;28;20052;-93
2021/12/16 12:42:41;;;;;;;4.93;2.10;;;19.10;55.30;;;;;;5034282;28;20057;-95
2021/12/16 12:45:09;;;;;;;4.78;2.35;;;19.10;55.30;;;;;;5033819;28;20129;-94
2021/12/16 12:47:35;;;;;;;4.57;2.25;;;19.10;55.40;;;;;;5034718;28;20048;-94
2021/12/16 12:50:13;;;;;;;5.47;2.90;;;19.10;55.40;;;;;;5050930;28;20045;-93
2021/12/16 12:52:39;;;;;;;6.38;2.63;;;19.10;55.50;;;;;;5051264;28;20091;-92
2021/12/16 12:55:10;;;;;;;4.40;2.20;;;19.10;55.60;;;;;;5035547;28;20049;-94
2021/12/16 12:57:36;;;;;;;6.22;2.10;;;19.10;55.60;;;;;;5036323;28;20044;-94
2021/12/16 13:00:07;;;;;;;5.70;2.45;;;19.10;55.50;;;;;;5036067;28;20114;-94
2021/12/16 13:02:35;;;;;;;4.50;2.20;;;19.20;55.70;;;;;;5030006;28;20052;-92
2021/12/16 13:05:05;;;;;;;4.22;2.28;;;19.20;55.60;;;;;;5028494;28;20151;-88
2021/12/16 13:07:43;;;;;;;5.10;2.15;;;19.20;55.60;;;;;;5025321;28;20061;-85
2021/12/16 13:10:17;;;;;;;4.70;2.20;;;19.20;55.40;;;;;;5027542;28;20562;-85
2021/12/16 13:12:55;;;;;;;3.45;1.98;;;19.20;55.30;;;;;;4995482;28;20504;-86
2021/12/16 13:16:17;;;;;;;6.03;2.13;;;20.40;56.00;;;;;;5004280;28;20520;-86
2021/12/16 13:24:26;;;;;;;3.28;1.77;;;19.30;55.50;;;;;;5028183;28;20149;-88
2021/12/16 13:27:13;;;;;;;4.25;1.83;;;20.50;56.30;;;;;;5003305;28;20077;-90
2021/12/16 13:29:42;;;;;;;3.35;1.80;;;19.30;55.50;;;;;;4994663;28;20528;-89
2021/12/16 13:32:20;;;;;;;3.38;1.65;;;19.40;55.60;;;;;;5050485;28;20098;-91
2021/12/16 13:35:05;;;;;;;3.78;1.88;;;19.30;55.40;;;;;;5044644;28;20040;-91
2021/12/16 13:37:33;;;;;;;4.50;2.20;;;19.30;55.40;;;;;;5037542;28;20138;-91
2021/12/16 13:40:39;;;;;;;4.13;2.00;;;19.40;55.40;;;;;;5050334;28;20063;-90
2021/12/16 13:43:12;;;;;;;3.00;1.45;;;19.40;55.40;;;;;;5055131;22;20060;-89
2021/12/16 13:45:54;;;;;;;2.90;1.48;;;19.40;55.40;;;;;;5048597;28;20049;-86
2021/12/16 14:10:18;;;;;;;5.20;1.83;;;19.60;55.50;;;;;;5058970;28;20094;-89
2021/12/16 14:23:28;;;;;;;5.85;2.95;;;19.60;55.30;;;;;;5033396;28;20049;-92
2021/12/16 14:26:16;;;;;;;5.90;2.60;;;19.60;55.30;;;;;;5036834;28;20656;-91
2021/12/16 14:46:58;;;;;;;4.60;2.50;;;19.90;55.60;;;;;;4976156;28;20038;-90
2021/12/16 14:53:42;;;;;;;4.30;2.10;;;19.70;55.40;;;;;;4976211;28;20046;-94
2021/12/16 14:56:41;;;;;;;4.88;2.05;;;19.60;55.30;;;;;;4983984;28;20383;-94
2021/12/16 14:59:21;;;;;;;4.38;2.33;;;19.60;55.30;;;;;;4980892;28;20042;-94
2021/12/16 15:01:53;;;;;;;5.07;2.03;;;18.00;54.70;;;;;;4985230;28;20122;-94
2021/12/16 15:04:30;;;;;;;4.90;2.20;;;18.20;54.60;;;;;;5049892;28;20411;-93
2021/12/16 15:07:14;;;;;;;4.15;2.30;;;19.20;55.00;;;;;;5063665;28;20044;-93
2021/12/16 15:09:48;;;;;;;4.47;2.10;;;19.90;56.10;;;;;;5071734;28;20079;-90
2021/12/16 15:12:44;;;;;;;3.97;2.30;;;21.00;56.40;;;;;;5072881;28;20342;-92
2021/12/16 15:15:45;;;;;;;4.43;2.30;;;19.50;55.10;;;;;;5079471;28;20093;-96
2021/12/16 15:34:51;;;;;;;5.35;2.58;;;19.50;55.20;;;;;;5085401;28;20680;-95
2021/12/16 15:44:14;;;;;;;3.92;2.00;;;19.60;55.70;;;;;;5095178;28;20051;-96
2021/12/16 15:46:43;;;;;;;3.72;1.92;;;19.10;56.40;;;;;;5095586;28;20079;-96
2021/12/16 15:49:18;;;;;;;3.50;1.73;;;19.60;55.50;;;;;;5087689;28;20066;-95
2021/12/16 15:51:52;;;;;;;3.78;2.22;;;19.60;55.70;;;;;;5091044;28;20139;-96
2021/12/16 15:54:21;;;;;;;3.47;1.67;;;17.90;54.30;;;;;;5099007;28;20047;-96
2021/12/16 16:00:28;;;;;;;3.05;1.42;;;19.40;54.90;;;;;;5094095;28;20063;-96
2021/12/16 16:02:56;;;;;;;4.55;1.85;;;18.60;55.70;;;;;;5099357;28;20048;-96
2021/12/16 16:05:22;;;;;;;4.38;1.73;;;19.30;55.10;;;;;;5060483;28;20052;-96
2021/12/16 16:08:06;;;;;;;4.50;1.80;;;19.60;55.80;;;;;;5095537;28;20028;-96
2021/12/16 16:10:36;;;;;;;3.80;1.67;;;19.50;55.20;;;;;;5095718;28;20031;-96
2021/12/16 16:13:14;;;;;;;4.10;1.80;;;19.40;55.20;;;;;;5090807;28;20059;-95
2021/12/16 16:16:01;;;;;;;3.90;2.00;;;19.10;54.90;;;;;;5092852;28;20060;-96
2021/12/16 16:18:42;;;;;;;3.15;1.75;;;19.70;55.00;;;;;;5091591;28;20039;-96
2021/12/16 16:21:27;;;;;;;3.28;1.70;;;20.60;55.50;;;;;;5098636;28;20105;-96
2021/12/16 16:24:14;;;;;;;2.60;1.45;;;19.40;54.90;;;;;;5079037;28;20044;-96
2021/12/16 16:26:54;;;;;;;2.70;1.35;;;20.00;55.10;;;;;;5087369;28;20063;-96
2021/12/16 16:29:21;;;;;;;3.45;1.45;;;20.30;55.40;;;;;;5076708;28;20488;-95
2021/12/16 16:32:02;;;;;;;2.03;1.08;;;19.90;55.30;;;;;;5087927;28;20131;-95
2021/12/16 16:34:49;;;;;;;2.40;1.17;;;19.60;55.10;;;;;;5049494;28;20144;-88
2021/12/16 16:37:28;;;;;;;3.47;1.40;;;19.40;54.80;;;;;;5052204;28;20086;-87
2021/12/16 16:40:08;;;;;;;3.65;1.40;;;19.40;54.70;;;;;;5054161;28;20064;-95
2021/12/16 16:42:37;;;;;;;3.22;1.48;;;19.20;54.60;;;;;;5057730;28;20067;-95
2021/12/16 16:45:03;;;;;;;3.17;1.50;;;19.50;54.80;;;;;;5059987;28;20852;-94
2021/12/16 16:47:34;;;;;;;2.15;1.30;;;19.50;54.80;;;;;;5056225;28;20051;-95
2021/12/16 16:50:00;;;;;;;3.03;1.73;;;20.50;55.30;;;;;;5067901;28;20076;-94
2021/12/16 16:52:35;;;;;;;2.53;1.20;;;21.00;55.60;;;;;;5058931;28;20075;-94
2021/12/16 16:55:04;;;;;;;2.85;1.50;;;19.50;54.80;;;;;;5062712;28;20075;-95
2021/12/16 16:57:31;;;;;;;2.35;1.10;;;19.50;54.80;;;;;;5060618;28;20078;-94
2021/12/16 16:59:58;;;;;;;3.70;1.60;;;19.50;54.80;;;;;;5059297;28;20033;-93